Time;durP1;ratioP1;P1;durP2;ratioP2;P2;SDS_P1;SDS_P2;PMS_P1;PMS_P2;Temp;Humidity;BMP_temperature;BMP_pressure;BME280_temperature;BME280_humidity;BME280_pressure;Samples;Min_cycle;Max_cycle;Signal;HPM_P1;HPM_P2
2021/08/05 00:01:01;;;;;;;;;;;;;;;14.16;100.00;100549.31;5113368;28;19967;-67
2021/08/05 00:03:27;;;;;;;;;;;;;;;14.13;100.00;100555.06;5112914;28;19994;-67
2021/08/05 00:05:53;;;;;;;;;;;;;;;14.07;100.00;100557.41;5112999;28;20014;-67
2021/08/05 00:08:21;;;;;;;;;;;;;;;14.00;100.00;100558.16;5112543;28;20406;-67
2021/08/05 00:10:48;;;;;;;;;;;;;;;13.95;100.00;100552.28;5113173;28;19969;-67
2021/08/05 00:13:14;;;;;;;;;;;;;;;13.88;100.00;100554.75;5111497;28;20390;-73
2021/08/05 00:15:40;;;;;;;;;;;;;;;13.81;100.00;100546.31;5112705;28;19977;-73
2021/08/05 00:18:07;;;;;;;;;;;;;;;13.75;100.00;100546.06;5112478;28;20018;-73
2021/08/05 00:20:33;;;;;;;;;;;;;;;13.69;100.00;100548.38;5112640;28;19924;-73
2021/08/05 00:22:59;;;;;;;;;;;;;;;13.65;100.00;100546.09;5112795;28;20352;-73
2021/08/05 00:25:27;;;;;;;;;;;;;;;13.57;100.00;100549.56;5112210;28;20010;-73
2021/08/05 00:27:53;;;;;;;;;;;;;;;13.52;100.00;100547.28;5112195;28;20019;-72
2021/08/05 00:30:19;;;;;;;;;;;;;;;13.49;100.00;100554.91;5112405;28;20439;-73
2021/08/05 00:32:46;;;;;;;;;;;;;;;13.44;100.00;100549.91;5112427;28;19977;-67
2021/08/05 00:35:12;;;;;;;;;;;;;;;13.41;100.00;100550.19;5111108;28;19935;-67
2021/08/05 00:37:39;;;;;;;;;;;;;;;13.35;100.00;100545.31;5110856;28;19924;-67
2021/08/05 00:40:06;;;;;;;;;;;;;;;13.30;100.00;100553.91;5110277;28;19930;-67
2021/08/05 00:42:34;;;;;;;;;;;;;;;13.27;100.00;100553.34;5112172;28;19972;-67
2021/08/05 00:45:00;;;;;;;;;;;;;;;13.22;100.00;100549.19;5111152;28;19928;-67
2021/08/05 00:47:28;;;;;;;;;;;;;;;13.18;100.00;100553.22;5110770;28;19934;-67
2021/08/05 00:49:55;;;;;;;;;;;;;;;13.14;100.00;100551.78;5112199;28;20391;-67
2021/08/05 00:52:21;;;;;;;;;;;;;;;13.13;100.00;100554.66;5111154;28;19949;-67
2021/08/05 00:54:47;;;;;;;;;;;;;;;13.11;100.00;100545.75;5110831;28;19924;-67
2021/08/05 00:57:13;;;;;;;;;;;;;;;13.08;100.00;100546.94;5111882;28;19942;-68
2021/08/05 00:59:41;;;;;;;;;;;;;;;13.11;100.00;100549.34;5110944;28;19923;-67
2021/08/05 01:02:09;;;;;;;;;;;;;;;13.11;100.00;100546.63;5110945;28;19981;-67
2021/08/05 01:04:35;;;;;;;;;;;;;;;13.05;100.00;100549.94;5112165;28;19924;-67
2021/08/05 01:07:04;;;;;;;;;;;;;;;12.99;100.00;100547.81;5111780;28;19923;-67
2021/08/05 01:09:32;;;;;;;;;;;;;;;12.95;100.00;100538.16;5111938;28;20007;-67
2021/08/05 01:12:03;;;;;;;;;;;;;;;12.89;100.00;100534.16;5112302;28;19924;-68
2021/08/05 01:14:33;;;;;;;;;;;;;;;12.86;100.00;100538.03;5112623;28;19923;-66
2021/08/05 01:17:01;;;;;;;;;;;;;;;12.84;100.00;100540.06;5110746;28;19927;-66
2021/08/05 01:19:31;;;;;;;;;;;;;;;12.81;100.00;100537.59;5112015;28;19923;-66
2021/08/05 01:22:01;;;;;;;;;;;;;;;12.77;100.00;100541.63;5112376;28;19924;-66
2021/08/05 01:24:32;;;;;;;;;;;;;;;12.75;100.00;100535.47;5110880;28;20334;-66
2021/08/05 01:27:03;;;;;;;;;;;;;;;12.71;100.00;100531.31;5110839;28;19928;-66
2021/08/05 01:29:32;;;;;;;;;;;;;;;12.66;100.00;100531.72;5110468;28;19930;-72
2021/08/05 01:31:59;;;;;;;;;;;;;;;12.61;100.00;100525.00;5112098;28;19969;-74
2021/08/05 01:34:26;;;;;;;;;;;;;;;12.59;100.00;100518.81;5110723;28;19924;-73
2021/08/05 01:36:53;;;;;;;;;;;;;;;12.56;100.00;100517.28;5110577;28;19951;-73
2021/08/05 01:39:20;;;;;;;;;;;;;;;12.55;100.00;100519.13;5111807;28;20310;-73
2021/08/05 01:41:47;;;;;;;;;;;;;;;12.55;100.00;100521.84;5111867;28;19924;-71
2021/08/05 01:44:17;;;;;;;;;;;;;;;12.55;100.00;100524.56;5110578;28;19928;-71
2021/08/05 01:46:44;;;;;;;;;;;;;;;12.55;100.00;100521.00;5110092;28;19955;-71
2021/08/05 01:49:11;;;;;;;;;;;;;;;12.53;100.00;100521.16;5110491;28;19931;-71
2021/08/05 01:51:39;;;;;;;;;;;;;;;12.50;100.00;100518.69;5114770;28;19927;-71
2021/08/05 01:54:06;;;;;;;;;;;;;;;12.46;100.00;100519.97;5114425;28;20383;-71
2021/08/05 01:56:33;;;;;;;;;;;;;;;12.43;100.00;100516.69;5114284;28;19977;-71
2021/08/05 01:58:59;;;;;;;;;;;;;;;12.41;100.00;100514.09;5114193;28;19924;-70
2021/08/05 02:01:28;;;;;;;;;;;;;;;12.35;100.00;100509.22;5114335;28;19931;-71
2021/08/05 02:04:00;;;;;;;;;;;;;;;12.31;100.00;100516.81;5114194;28;19974;-71
2021/08/05 02:06:28;;;;;;;;;;;;;;;12.28;100.00;100513.50;5115309;28;19923;-71
2021/08/05 02:08:58;;;;;;;;;;;;;;;12.26;100.00;100510.94;5113831;28;20375;-71
2021/08/05 02:11:24;;;;;;;;;;;;;;;12.23;100.00;100516.66;5115286;28;19989;-71
2021/08/05 02:13:52;;;;;;;;;;;;;;;12.18;100.00;100517.06;5113888;28;19923;-71
2021/08/05 02:16:19;;;;;;;;;;;;;;;12.13;100.00;100516.66;5115094;28;19927;-71
2021/08/05 02:18:49;;;;;;;;;;;;;;;12.08;100.00;100515.31;5113928;28;20371;-71
2021/08/05 02:21:16;;;;;;;;;;;;;;;12.03;100.00;100515.75;5113709;28;19923;-71
2021/08/05 02:23:43;;;;;;;;;;;;;;;12.00;100.00;100522.34;5115140;28;19974;-71
2021/08/05 02:26:09;;;;;;;;;;;;;;;11.97;100.00;100516.31;5114918;28;20279;-71
2021/08/05 02:28:37;;;;;;;;;;;;;;;11.96;100.00;100522.75;5113686;28;19923;-71
2021/08/05 02:31:07;;;;;;;;;;;;;;;11.93;100.00;100523.00;5113472;28;20026;-67
2021/08/05 02:33:34;;;;;;;;;;;;;;;11.88;100.00;100518.84;5115103;28;20335;-67
2021/08/05 02:36:02;;;;;;;;;;;;;;;11.83;100.00;100522.97;5114760;28;20383;-67
2021/08/05 02:38:28;;;;;;;;;;;;;;;11.78;100.00;100512.50;5114542;28;19928;-67
2021/08/05 02:40:55;;;;;;;;;;;;;;;11.77;100.00;100520.78;5113595;28;19931;-67
2021/08/05 02:43:24;;;;;;;;;;;;;;;11.73;100.00;100522.91;5114637;28;19923;-67
2021/08/05 02:45:51;;;;;;;;;;;;;;;11.72;100.00;100515.78;5113414;28;20377;-67
2021/08/05 02:48:18;;;;;;;;;;;;;;;11.68;100.00;100509.75;5112861;28;19924;-67
2021/08/05 02:50:45;;;;;;;;;;;;;;;11.62;100.00;100501.28;5114481;28;19927;-67
2021/08/05 02:53:13;;;;;;;;;;;;;;;11.58;100.00;100506.13;5114739;28;19962;-67
2021/08/05 02:55:40;;;;;;;;;;;;;;;11.54;100.00;100516.44;5112990;28;20004;-68
2021/08/05 02:58:06;;;;;;;;;;;;;;;11.51;100.00;100513.97;5112845;28;20366;-67
2021/08/05 03:00:33;;;;;;;;;;;;;;;11.48;100.00;100514.25;5114258;28;19923;-67
2021/08/05 03:03:00;;;;;;;;;;;;;;;11.44;100.00;100515.50;5112357;28;19924;-68
2021/08/05 03:05:26;;;;;;;;;;;;;;;11.41;100.00;100514.91;5114074;28;19927;-68
2021/08/05 03:07:53;;;;;;;;;;;;;;;11.39;100.00;100517.78;5113975;28;20349;-67
2021/08/05 03:10:20;;;;;;;;;;;;;;;11.38;100.00;100522.34;5114325;28;19928;-68
2021/08/05 03:12:47;;;;;;;;;;;;;;;11.36;100.00;100518.91;5114003;28;19923;-68
2021/08/05 03:15:13;;;;;;;;;;;;;;;11.32;100.00;100517.44;5114000;28;20265;-68
2021/08/05 03:17:39;;;;;;;;;;;;;;;11.29;100.00;100520.44;5113582;28;19923;-68
2021/08/05 03:20:06;;;;;;;;;;;;;;;11.29;100.00;100509.56;5114027;28;19959;-67
2021/08/05 03:22:33;;;;;;;;;;;;;;;11.27;100.00;100508.84;5113832;28;19932;-67
2021/08/05 03:24:59;;;;;;;;;;;;;;;11.24;100.00;100514.53;5113847;28;19966;-67
2021/08/05 03:27:27;;;;;;;;;;;;;;;11.22;100.00;100511.97;5113535;28;19958;-68
2021/08/05 03:29:53;;;;;;;;;;;;;;;11.23;100.00;100512.81;5106033;28;19959;-66
2021/08/05 03:32:19;;;;;;;;;;;;;;;11.22;100.00;100511.97;5113197;28;20355;-67
2021/08/05 03:34:46;;;;;;;;;;;;;;;11.22;100.00;100511.97;5103447;28;19924;-66
2021/08/05 03:37:12;;;;;;;;;;;;;;;11.21;100.00;100512.06;5094114;28;19962;-66
2021/08/05 03:39:38;;;;;;;;;;;;;;;11.21;100.00;100520.22;5094272;28;19966;-66
2021/08/05 03:42:04;;;;;;;;;;;;;;;11.20;100.00;100513.94;5093179;28;19932;-66
2021/08/05 03:44:32;;;;;;;;;;;;;;;11.25;100.00;100510.84;5094460;28;20299;-65
2021/08/05 03:46:58;;;;;;;;;;;;;;;11.24;100.00;100514.53;5093985;28;19971;-65
2021/08/05 03:49:25;;;;;;;;;;;;;;;11.26;100.00;100514.41;5110755;28;19967;-73
2021/08/05 03:51:51;;;;;;;;;;;;;;;11.26;100.00;100509.81;5113296;28;20337;-73
2021/08/05 03:54:17;;;;;;;;;;;;;;;11.31;100.00;100506.72;5096871;28;19963;-72
2021/08/05 03:56:43;;;;;;;;;;;;;;;11.30;100.00;100505.00;5092904;28;19969;-71
2021/08/05 03:59:10;;;;;;;;;;;;;;;11.32;100.00;100506.56;5096454;28;19969;-71
2021/08/05 04:01:38;;;;;;;;;;;;;;;11.36;100.00;100505.31;5112874;28;19927;-70
2021/08/05 04:04:05;;;;;;;;;;;;;;;11.42;100.00;100508.47;5111254;28;20340;-70
2021/08/05 04:06:31;;;;;;;;;;;;;;;11.45;100.00;100506.38;5113082;28;19924;-71
2021/08/05 04:08:57;;;;;;;;;;;;;;;11.48;100.00;100505.25;5112033;28;20374;-71
2021/08/05 04:11:23;;;;;;;;;;;;;;;11.52;100.00;100504.81;5112583;28;19963;-73
2021/08/05 04:13:50;;;;;;;;;;;;;;;11.59;100.00;100501.56;5103277;28;19970;-73
2021/08/05 04:16:16;;;;;;;;;;;;;;;11.66;100.00;100500.84;5106078;28;20014;-71
2021/08/05 04:18:44;;;;;;;;;;;;;;;11.71;100.00;100503.19;5109836;28;19924;-64
2021/08/05 04:21:10;;;;;;;;;;;;;;;11.79;100.00;100503.34;5092566;28;19977;-64
2021/08/05 04:23:36;;;;;;;;;;;;;;;11.86;100.00;100504.50;5092554;28;20398;-64
2021/08/05 04:26:03;;;;;;;;;;;;;;;11.89;100.00;100506.97;5110346;28;20022;-63
2021/08/05 04:28:29;;;;;;;;;;;;;;;11.96;100.00;100503.69;5111024;28;20417;-72
2021/08/05 04:30:56;;;;;;;;;;;;;;;11.99;100.00;100496.13;5113436;28;19924;-72
2021/08/05 04:33:22;;;;;;;;;;;;;;;12.01;100.00;100491.44;5111772;28;20482;-64
2021/08/05 04:35:50;;;;;;;;;;;;;;;12.11;100.00;100494.16;5112481;28;19967;-64
2021/08/05 04:38:16;;;;;;;;;;;;;;;12.14;100.00;100495.72;5112144;28;19993;-64
2021/08/05 04:40:43;;;;;;;;;;;;;;;12.16;100.00;100488.28;5112646;28;20327;-64
2021/08/05 04:43:09;;;;;;;;;;;;;;;12.20;100.00;100479.69;5112598;28;19965;-71
2021/08/05 04:45:35;;;;;;;;;;;;;;;12.27;100.00;100479.16;5112413;28;20411;-72
2021/08/05 04:48:02;;;;;;;;;;;;;;;12.34;100.00;100480.28;5112026;28;19989;-72
2021/08/05 04:50:30;;;;;;;;;;;;;;;12.42;100.00;100483.16;5112267;28;20395;-71
2021/08/05 04:52:59;;;;;;;;;;;;;;;12.52;100.00;100474.97;5112336;28;19931;-71
2021/08/05 04:55:25;;;;;;;;;;;;;;;12.60;100.00;100474.25;5112138;28;19927;-72
2021/08/05 04:57:53;;;;;;;;;;;;;;;12.71;100.00;100477.69;5112019;28;19973;-72
2021/08/05 05:00:23;;;;;;;;;;;;;;;12.84;100.00;100471.97;5112168;28;19933;-70
2021/08/05 05:02:49;;;;;;;;;;;;;;;12.96;100.00;100467.22;5112177;28;20025;-69
2021/08/05 05:05:16;;;;;;;;;;;;;;;13.10;100.00;100462.31;5111927;28;19998;-72
2021/08/05 05:07:42;;;;;;;;;;;;;;;13.21;100.00;100459.41;5111758;28;20018;-72
2021/08/05 05:10:11;;;;;;;;;;;;;;;13.35;100.00;100464.38;5112293;28;20015;-72
2021/08/05 05:12:37;;;;;;;;;;;;;;;13.48;100.00;100452.28;5112058;28;20010;-72
2021/08/05 05:15:04;;;;;;;;;;;;;;;13.62;100.00;100453.69;5112040;28;20334;-72
2021/08/05 05:17:31;;;;;;;;;;;;;;;13.78;100.00;100450.28;5112005;28;19967;-72
2021/08/05 05:19:57;;;;;;;;;;;;;;;13.86;100.00;100459.41;5111195;28;20459;-71
2021/08/05 05:22:24;;;;;;;;;;;;;;;14.03;100.00;100460.47;5097738;28;19934;-71
2021/08/05 05:24:50;;;;;;;;;;;;;;;14.18;100.00;100449.03;5111490;28;20043;-71
2021/08/05 05:27:18;;;;;;;;;;;;;;;14.29;100.00;100453.41;5116046;28;20086;-66
2021/08/05 05:29:44;;;;;;;;;;;;;;;14.39;100.00;100445.97;5114760;28;19977;-65
2021/08/05 05:32:10;;;;;;;;;;;;;;;14.53;100.00;100448.16;5114744;28;19924;-65
2021/08/05 05:34:36;;;;;;;;;;;;;;;14.58;100.00;100444.97;5116092;28;19963;-65
2021/08/05 05:37:03;;;;;;;;;;;;;;;14.58;100.00;100444.97;5115836;28;19928;-65
2021/08/05 05:39:29;;;;;;;;;;;;;;;14.63;100.00;100441.75;5116032;28;20027;-72
2021/08/05 05:41:56;;;;;;;;;;;;;;;14.76;100.00;100436.75;5115518;28;20019;-70
2021/08/05 05:44:23;;;;;;;;;;;;;;;15.02;100.00;100436.78;5114561;28;19959;-73
2021/08/05 05:46:50;;;;;;;;;;;;;;;15.31;100.00;100435.59;5115627;28;20010;-73
2021/08/05 05:49:16;;;;;;;;;;;;;;;15.54;100.00;100435.88;5115758;28;20386;-73
2021/08/05 05:51:42;;;;;;;;;;;;;;;15.84;100.00;100427.28;5115742;28;19966;-65
2021/08/05 05:54:09;;;;;;;;;;;;;;;16.07;100.00;100438.47;5114393;28;19959;-73
2021/08/05 05:56:35;;;;;;;;;;;;;;;16.52;100.00;100433.56;5115793;28;19967;-73
2021/08/05 05:59:01;;;;;;;;;;;;;;;16.95;100.00;100431.50;5115310;28;19962;-65
2021/08/05 06:01:29;;;;;;;;;;;;;;;17.53;100.00;100425.84;5115763;28;20272;-65
2021/08/05 06:03:55;;;;;;;;;;;;;;;17.91;100.00;100418.63;5114188;28;19963;-65
2021/08/05 06:06:21;;;;;;;;;;;;;;;18.17;100.00;100416.63;5115401;28;19963;-65
2021/08/05 06:08:48;;;;;;;;;;;;;;;18.58;100.00;100416.31;5113927;28;20448;-65
2021/08/05 06:11:14;;;;;;;;;;;;;;;18.91;100.00;100421.56;5115172;28;19967;-65
2021/08/05 06:13:40;;;;;;;;;;;;;;;19.16;100.00;100419.41;5116279;28;19955;-65
2021/08/05 06:16:06;;;;;;;;;;;;;;;19.50;100.00;100412.47;5115078;28;20022;-65
2021/08/05 06:18:35;;;;;;;;;;;;;;;19.48;100.00;100410.97;5114853;27;19955;-65
2021/08/05 06:21:01;;;;;;;;;;;;;;;19.61;100.00;100413.06;5115045;28;19949;-66
2021/08/05 06:23:28;;;;;;;;;;;;;;;19.64;100.00;100413.53;5115169;28;20436;-65
2021/08/05 06:25:54;;;;;;;;;;;;;;;19.34;100.00;100415.44;5114945;28;20009;-65
2021/08/05 06:28:20;;;;;;;;;;;;;;;19.39;100.00;100413.81;5114721;28;19927;-65
2021/08/05 06:30:46;;;;;;;;;;;;;;;19.64;100.00;100412.66;5115030;28;20014;-65
2021/08/05 06:33:13;;;;;;;;;;;;;;;19.68;100.00;100413.97;5114694;28;19924;-65
2021/08/05 06:35:40;;;;;;;;;;;;;;;19.68;100.00;100414.84;5114928;28;19966;-73
2021/08/05 06:38:07;;;;;;;;;;;;;;;19.78;100.00;100413.69;5113102;28;19981;-72
2021/08/05 06:40:33;;;;;;;;;;;;;;;20.05;100.00;100409.38;5114983;28;19924;-72
2021/08/05 06:42:59;;;;;;;;;;;;;;;20.43;100.00;100417.41;5115087;28;19976;-72
2021/08/05 06:45:26;;;;;;;;;;;;;;;20.84;100.00;100400.19;5114455;28;19934;-72
2021/08/05 06:47:52;;;;;;;;;;;;;;;21.34;100.00;100402.00;5114413;28;19995;-72
2021/08/05 06:50:19;;;;;;;;;;;;;;;21.83;100.00;100405.66;5114461;28;19924;-71
2021/08/05 06:52:48;;;;;;;;;;;;;;;22.21;100.00;100419.81;5114638;28;19935;-71
2021/08/05 06:55:14;;;;;;;;;;;;;;;22.46;100.00;100415.63;5114371;28;20105;-72
2021/08/05 06:57:40;;;;;;;;;;;;;;;22.65;100.00;100408.41;5114408;27;20018;-72
2021/08/05 07:00:07;;;;;;;;;;;;;;;22.48;100.00;100408.00;5114488;28;19966;-71
2021/08/05 07:02:33;;;;;;;;;;;;;;;22.28;100.00;100402.41;5114471;28;19963;-64
2021/08/05 07:05:02;;;;;;;;;;;;;;;22.03;100.00;100411.25;5114435;28;19955;-64
2021/08/05 07:07:28;;;;;;;;;;;;;;;22.06;100.00;100413.59;5114083;28;20035;-64
2021/08/05 07:09:56;;;;;;;;;;;;;;;22.05;100.00;100412.75;5114288;28;19980;-64
2021/08/05 07:12:22;;;;;;;;;;;;;;;22.05;100.00;100415.53;5114008;28;20375;-63
2021/08/05 07:14:48;;;;;;;;;;;;;;;22.08;100.00;100411.50;5114155;28;19967;-72
2021/08/05 07:17:15;;;;;;;;;;;;;;;21.89;100.00;100405.69;5113780;28;19988;-72
2021/08/05 07:19:42;;;;;;;;;;;;;;;21.84;100.00;100416.50;5113942;28;19924;-64
2021/08/05 07:22:08;;;;;;;;;;;;;;;21.71;100.00;100414.56;5113861;28;19923;-64
2021/08/05 07:24:35;;;;;;;;;;;;;;;21.83;100.00;100416.72;5113777;28;19923;-64
2021/08/05 07:27:03;;;;;;;;;;;;;;;21.88;100.00;100414.19;5113462;28;19955;-64
2021/08/05 07:29:29;;;;;;;;;;;;;;;21.67;100.00;100412.41;5093892;28;20345;-63
2021/08/05 07:31:56;;;;;;;;;;;;;;;21.68;100.00;100414.09;5093114;28;19931;-63
2021/08/05 07:34:22;;;;;;;;;;;;;;;21.50;100.00;100407.19;5093219;28;19928;-63
2021/08/05 07:36:49;;;;;;;;;;;;;;;21.48;100.00;100403.78;5092932;28;19967;-63
2021/08/05 07:39:15;;;;;;;;;;;;;;;21.66;100.00;100411.56;5091638;28;20307;-63
2021/08/05 07:41:41;;;;;;;;;;;;;;;21.82;100.00;100412.25;5092955;28;19924;-63
2021/08/05 07:44:09;;;;;;;;;;;;;;;21.89;100.00;100407.63;5093044;28;20006;-63
2021/08/05 07:46:35;;;;;;;;;;;;;;;22.09;100.00;100404.91;5093814;28;19978;-64
2021/08/05 07:49:01;;;;;;;;;;;;;;;22.36;100.00;100407.75;5112430;28;20042;-64
2021/08/05 07:51:28;;;;;;;;;;;;;;;22.49;100.00;100405.00;5113297;28;19927;-64
2021/08/05 07:53:54;;;;;;;;;;;;;;;22.43;100.00;100400.31;5112908;28;19923;-64
2021/08/05 07:56:21;;;;;;;;;;;;;;;22.47;100.00;100403.50;5113186;28;19959;-64
2021/08/05 07:58:48;;;;;;;;;;;;;;;22.87;100.00;100400.75;5112832;28;19923;-71
2021/08/05 08:01:15;;;;;;;;;;;;;;;23.16;100.00;100401.41;5113044;27;19930;-71
2021/08/05 08:03:41;;;;;;;;;;;;;;;23.39;100.00;100398.16;5113168;28;19959;-71
2021/08/05 08:06:08;;;;;;;;;;;;;;;23.62;100.00;100399.56;5112666;28;20391;-72
2021/08/05 08:08:34;;;;;;;;;;;;;;;23.66;100.00;100400.81;5112836;28;19955;-71
2021/08/05 08:11:00;;;;;;;;;;;;;;;23.90;100.00;100399.25;5111612;28;19967;-71
2021/08/05 08:13:27;;;;;;;;;;;;;;;23.81;100.00;100397.78;5112858;28;20413;-65
2021/08/05 08:15:54;;;;;;;;;;;;;;;23.78;100.00;100401.81;5112551;28;20421;-64
2021/08/05 08:18:21;;;;;;;;;;;;;;;23.65;100.00;100396.34;5112226;28;20341;-65
2021/08/05 08:20:48;;;;;;;;;;;;;;;23.78;100.00;100399.06;5112588;28;19976;-64
2021/08/05 08:23:14;;;;;;;;;;;;;;;23.86;100.00;100403.50;5112491;28;19981;-64
2021/08/05 08:25:41;;;;;;;;;;;;;;;24.49;100.00;100399.09;5112045;28;20355;-64
2021/08/05 08:28:08;;;;;;;;;;;;;;;25.23;100.00;100393.78;5112070;28;20022;-64
2021/08/05 08:30:35;;;;;;;;;;;;;;;25.35;100.00;100385.59;5112462;28;20022;-64
2021/08/05 08:33:01;;;;;;;;;;;;;;;25.68;100.00;100384.31;5112370;28;20405;-64
2021/08/05 08:35:29;;;;;;;;;;;;;;;25.67;100.00;100388.16;5112071;28;19955;-64
2021/08/05 08:37:55;;;;;;;;;;;;;;;25.86;100.00;100387.06;5112146;28;19970;-64
2021/08/05 08:40:22;;;;;;;;;;;;;;;25.90;100.00;100379.94;5112295;28;19963;-64
2021/08/05 08:42:49;;;;;;;;;;;;;;;25.74;100.00;100375.06;5112346;28;19924;-64
2021/08/05 08:45:15;;;;;;;;;;;;;;;26.14;100.00;100380.09;5112208;28;19951;-64
2021/08/05 08:47:42;;;;;;;;;;;;;;;26.25;100.00;100374.81;5112040;28;19924;-64
2021/08/05 08:50:09;;;;;;;;;;;;;;;25.87;100.00;100374.88;5112226;28;20108;-64
2021/08/05 08:52:38;;;;;;;;;;;;;;;25.48;100.00;100370.66;5111963;28;20037;-71
2021/08/05 08:55:05;;;;;;;;;;;;;;;25.11;100.00;100367.84;5112026;28;20456;-71
2021/08/05 08:57:33;;;;;;;;;;;;;;;25.09;100.00;100362.53;5111679;28;19974;-71
2021/08/05 08:59:59;;;;;;;;;;;;;;;24.97;100.00;100367.97;5111419;28;19969;-71
2021/08/05 09:02:26;;;;;;;;;;;;;;;25.00;100.00;100358.34;5111818;28;19992;-71
2021/08/05 09:04:52;;;;;;;;;;;;;;;24.92;100.00;100355.88;5112080;28;19924;-71
2021/08/05 09:07:19;;;;;;;;;;;;;;;25.48;100.00;100351.22;5110486;28;19971;-72
2021/08/05 09:09:46;;;;;;;;;;;;;;;25.91;96.82;100347.47;5112289;28;20011;-71
2021/08/05 09:12:15;;;;;;;;;;;;;;;26.45;98.59;100347.50;5111738;28;19990;-71
2021/08/05 09:14:45;;;;;;;;;;;;;;;26.39;90.29;100337.34;5111865;28;20169;-72
2021/08/05 09:17:15;;;;;;;;;;;;;;;25.74;90.33;100347.25;5111698;28;19966;-72
2021/08/05 09:19:42;;;;;;;;;;;;;;;25.77;93.24;100346.78;5111792;28;19963;-72
2021/08/05 09:22:09;;;;;;;;;;;;;;;25.80;92.77;100346.34;5111480;28;19923;-71
2021/08/05 09:24:35;;;;;;;;;;;;;;;26.27;88.09;100347.59;5111716;28;19971;-71
2021/08/05 09:27:04;;;;;;;;;;;;;;;26.33;84.45;100339.13;5111408;28;20006;-64
2021/08/05 09:29:31;;;;;;;;;;;;;;;26.50;88.48;100330.13;5111628;28;20019;-71
2021/08/05 09:31:58;;;;;;;;;;;;;;;26.86;87.81;100337.41;5108189;28;19981;-71
2021/08/05 09:34:32;;;;;;;;;;;;;;;26.69;84.55;100333.63;5100331;28;19950;-71
2021/08/05 09:37:00;;;;;;;;;;;;;;;27.04;79.20;100335.59;5100303;28;19985;-71
2021/08/05 09:39:27;;;;;;;;;;;;;;;27.06;73.03;100330.63;5111058;28;19982;-71
2021/08/05 09:41:55;;;;;;;;;;;;;;;26.88;75.22;100335.25;5103124;28;20024;-71
2021/08/05 09:44:23;;;;;;;;;;;;;;;27.28;71.18;100336.38;5096418;28;20011;-71
2021/08/05 09:47:00;;;;;;;;;;;;;;;27.40;63.20;100330.81;5089874;28;19924;-71
2021/08/05 09:49:29;;;;;;;;;;;;;;;27.31;67.99;100333.13;5090131;28;19997;-71
2021/08/05 09:51:55;;;;;;;;;;;;;;;26.90;67.00;100321.91;5091170;28;20462;-71
2021/08/05 09:54:21;;;;;;;;;;;;;;;26.49;75.93;100323.69;5090966;28;19928;-71
2021/08/05 09:56:53;;;;;;;;;;;;;;;25.77;83.83;100327.31;5090749;28;19924;-71
2021/08/05 09:59:19;;;;;;;;;;;;;;;25.19;89.59;100323.97;5090969;28;19924;-71
2021/08/05 10:01:57;;;;;;;;;;;;;;;25.00;95.53;100323.13;5090862;28;19985;-71
2021/08/05 10:04:25;;;;;;;;;;;;;;;24.80;97.78;100311.34;5090950;28;20029;-71
2021/08/05 10:06:55;;;;;;;;;;;;;;;24.67;93.82;100313.19;5090836;28;19954;-71
2021/08/05 10:09:21;;;;;;;;;;;;;;;24.65;94.88;100315.38;5090872;28;19928;-71
2021/08/05 10:11:48;;;;;;;;;;;;;;;24.53;93.29;100311.59;5092743;28;20031;-71
2021/08/05 10:14:19;;;;;;;;;;;;;;;24.58;100.00;100311.75;5094512;28;19967;-71
2021/08/05 10:16:46;;;;;;;;;;;;;;;24.57;97.30;100308.16;5094704;28;20042;-70
2021/08/05 10:19:14;;;;;;;;;;;;;;;24.95;97.94;100310.97;5094547;28;20365;-71
2021/08/05 10:21:40;;;;;;;;;;;;;;;25.32;86.02;100305.44;5094761;28;19924;-71
2021/08/05 10:24:07;;;;;;;;;;;;;;;25.73;81.36;100306.66;5094596;28;20030;-71
2021/08/05 10:26:33;;;;;;;;;;;;;;;25.41;83.81;100301.31;5094370;28;19964;-71
2021/08/05 10:29:00;;;;;;;;;;;;;;;25.09;84.05;100307.00;5094329;28;19955;-71
2021/08/05 10:31:26;;;;;;;;;;;;;;;24.77;86.34;100296.00;5093813;28;19985;-71
2021/08/05 10:33:52;;;;;;;;;;;;;;;24.47;84.28;100296.72;5093276;28;19994;-70
2021/08/05 10:36:20;;;;;;;;;;;;;;;24.62;84.25;100295.50;5093262;28;20036;-69
2021/08/05 10:38:46;;;;;;;;;;;;;;;24.99;86.94;100295.59;5094157;28;20027;-70
2021/08/05 10:41:13;;;;;;;;;;;;;;;25.03;89.93;100300.44;5094159;28;19966;-70
2021/08/05 10:43:39;;;;;;;;;;;;;;;25.06;92.55;100288.88;5094211;28;19956;-71
2021/08/05 10:46:06;;;;;;;;;;;;;;;24.95;88.95;100292.41;5094018;28;19959;-71
2021/08/05 10:48:33;;;;;;;;;;;;;;;24.87;91.40;100301.91;5093883;28;19924;-71
2021/08/05 10:50:59;;;;;;;;;;;;;;;24.63;90.22;100291.69;5094208;28;19927;-70
2021/08/05 10:53:43;;;;;;;;;;;;;;;24.66;92.96;100291.22;5093907;28;20398;-64
2021/08/05 10:56:20;;;;;;;;;;;;;;;24.49;91.72;100286.25;5093859;28;19924;-70
2021/08/05 10:59:01;;;;;;;;;;;;;;;24.36;90.85;100280.81;5093438;28;20001;-71
2021/08/05 11:01:43;;;;;;;;;;;;;;;24.26;83.81;100270.22;5108502;28;19974;-70
2021/08/05 11:04:10;;;;;;;;;;;;;;;24.33;88.12;100270.16;5114127;28;19955;-70
2021/08/05 11:06:36;;;;;;;;;;;;;;;24.52;87.00;100271.03;5114394;28;19967;-71
2021/08/05 11:09:26;;;;;;;;;;;;;;;24.96;86.67;100268.28;5114117;28;20079;-70
2021/08/05 11:11:53;;;;;;;;;;;;;;;25.62;86.37;100255.50;5114074;28;20395;-71
2021/08/05 11:14:38;;;;;;;;;;;;;;;25.78;85.46;100256.75;5113988;28;19955;-71
2021/08/05 11:17:05;;;;;;;;;;;;;;;25.54;86.96;100262.22;5113899;28;20398;-71
2021/08/05 11:19:33;;;;;;;;;;;;;;;25.35;91.43;100255.88;5113724;28;19966;-70
2021/08/05 11:22:14;;;;;;;;;;;;;;;25.32;97.99;100245.22;5114341;28;19930;-71
2021/08/05 11:24:54;;;;;;;;;;;;;;;25.38;96.66;100249.00;5113413;28;20439;-71
2021/08/05 11:27:21;;;;;;;;;;;;;;;25.39;97.23;100239.59;5113594;28;19927;-71
2021/08/05 11:29:48;;;;;;;;;;;;;;;25.43;93.57;100246.38;5113728;28;20023;-71
2021/08/05 11:32:33;;;;;;;;;;;;;;;25.92;93.08;100237.09;5113752;28;19930;-70
2021/08/05 11:35:01;;;;;;;;;;;;;;;26.47;85.33;100241.53;5113361;28;20009;-71
2021/08/05 11:37:28;;;;;;;;;;;;;;;26.88;91.00;100235.03;5113480;28;20249;-71
2021/08/05 11:39:56;;;;;;;;;;;;;;;27.27;84.98;100239.13;5113796;28;19966;-70
2021/08/05 11:42:23;;;;;;;;;;;;;;;27.55;79.09;100230.81;5113070;28;19981;-71
2021/08/05 11:44:52;;;;;;;;;;;;;;;27.77;81.40;100230.09;5113724;28;20014;-71
2021/08/05 11:47:19;;;;;;;;;;;;;;;28.11;80.01;100229.31;5112941;28;19936;-71
2021/08/05 11:49:49;;;;;;;;;;;;;;;28.09;72.87;100221.22;5113287;28;19931;-71
2021/08/05 11:52:17;;;;;;;;;;;;;;;27.93;70.34;100220.06;5113277;28;19982;-71
2021/08/05 11:54:43;;;;;;;;;;;;;;;27.63;73.26;100218.41;5113283;28;19977;-71
2021/08/05 11:57:12;;;;;;;;;;;;;;;27.93;77.19;100216.41;5113628;28;19924;-64
2021/08/05 11:59:39;;;;;;;;;;;;;;;27.64;67.82;100213.69;5113301;27;19924;-64
2021/08/05 12:02:06;;;;;;;;;;;;;;;27.50;73.09;100215.94;5113310;28;19937;-64
2021/08/05 12:04:32;;;;;;;;;;;;;;;27.65;84.54;100207.03;5113038;28;19985;-64
2021/08/05 12:07:14;;;;;;;;;;;;;;;27.61;70.45;100206.69;5113422;28;20332;-64
2021/08/05 12:09:40;;;;;;;;;;;;;;;27.48;74.94;100210.63;5113211;28;20366;-64
2021/08/05 12:12:06;;;;;;;;;;;;;;;27.60;77.59;100206.94;5112847;28;19969;-64
2021/08/05 12:14:34;;;;;;;;;;;;;;;27.55;73.04;100205.75;5112875;28;20011;-64
2021/08/05 12:17:01;;;;;;;;;;;;;;;27.84;69.84;100199.28;5112722;28;19969;-64
2021/08/05 12:19:29;;;;;;;;;;;;;;;28.56;75.67;100194.84;5112660;28;19986;-70
2021/08/05 12:21:55;;;;;;;;;;;;;;;28.81;64.25;100187.94;5112682;28;19930;-70
2021/08/05 12:24:24;;;;;;;;;;;;;;;28.88;62.90;100183.03;5112629;28;19963;-71
2021/08/05 12:26:56;;;;;;;;;;;;;;;29.30;63.01;100187.19;5112452;28;20347;-64
2021/08/05 12:29:23;;;;;;;;;;;;;;;29.56;61.83;100189.13;5112477;28;20292;-70
2021/08/05 12:31:50;;;;;;;;;;;;;;;29.04;59.24;100192.44;5112734;28;19924;-71